Time;durP1;ratioP1;P1;durP2;ratioP2;P2;SDS_P1;SDS_P2;PMS_P1;PMS_P2;Temp;Humidity;BMP_temperature;BMP_pressure;BME280_temperature;BME280_humidity;BME280_pressure;Samples;Min_cycle;Max_cycle;Signal;HPM_P1;HPM_P2
2022/03/27 00:01:26;;;;;;;0.60;0.50;;;;;;;10.49;71.77;103345.59;5078278;27;96841;-37
2022/03/27 00:03:51;;;;;;;3.00;1.10;;;;;;;10.54;71.38;103374.38;5096146;27;107174;-36
2022/03/27 00:06:16;;;;;;;1.48;1.00;;;;;;;10.49;72.02;103361.84;5096175;27;127195;-37
2022/03/27 00:08:42;;;;;;;1.80;0.70;;;;;;;10.51;70.93;103366.31;5096665;27;96730;-36
2022/03/27 00:11:27;;;;;;;0.93;0.60;;;;;;;10.45;71.42;103365.53;5097174;27;96828;-36
2022/03/27 00:13:59;;;;;;;1.40;0.80;;;;;;;10.47;71.34;103364.56;5096345;27;99423;-36
2022/03/27 00:16:25;;;;;;;1.92;0.85;;;;;;;10.50;71.87;103363.63;5096503;27;97804;-37
2022/03/27 00:18:51;;;;;;;1.17;0.75;;;;;;;10.52;72.50;103359.94;5096210;27;96686;-36
2022/03/27 00:21:20;;;;;;;1.88;1.10;;;;;;;10.49;69.98;103362.72;5078083;27;96932;-36
2022/03/27 00:23:45;;;;;;;2.47;1.10;;;;;;;10.47;71.27;103356.44;5077557;27;100787;-37
2022/03/27 00:26:11;;;;;;;1.92;1.00;;;;;;;10.43;71.52;103345.69;5096311;27;99360;-36
2022/03/27 00:28:36;;;;;;;1.80;1.27;;;;;;;10.31;71.83;103330.59;5096759;27;96445;-36
2022/03/27 00:31:04;;;;;;;3.38;1.02;;;;;;;10.38;72.54;103338.56;5096846;27;96902;-36
2022/03/27 00:33:31;;;;;;;4.75;1.00;;;;;;;10.50;71.46;103356.38;5077680;27;100934;-36
2022/03/27 00:35:58;;;;;;;1.02;0.93;;;;;;;10.49;71.28;103341.06;5077937;27;101207;-36
2022/03/27 00:38:25;;;;;;;1.75;1.20;;;;;;;10.46;71.28;103346.50;5077703;27;96637;-36
2022/03/27 00:40:51;;;;;;;5.20;0.80;;;;;;;10.41;73.61;103356.56;5077791;27;96877;-36
2022/03/27 00:43:17;;;;;;;0.90;0.85;;;;;;;10.38;73.63;103353.91;5077043;27;101024;-36
2022/03/27 00:45:43;;;;;;;2.20;1.10;;;;;;;10.43;72.40;103351.13;5077269;27;100945;-36
2022/03/27 00:48:09;;;;;;;2.63;1.33;;;;;;;10.45;70.46;103361.00;5096398;27;96637;-36
2022/03/27 00:50:34;;;;;;;2.47;1.48;;;;;;;10.41;72.52;103367.41;5096383;27;96812;-36
2022/03/27 00:53:00;;;;;;;3.95;1.30;;;;;;;10.35;72.05;103354.88;5095742;27;98692;-36
2022/03/27 00:55:25;;;;;;;2.40;1.02;;;;;;;10.41;71.78;103359.25;5095708;27;98904;-36
2022/03/27 00:57:51;;;;;;;1.23;0.88;;;;;;;10.33;71.81;103345.00;5095914;27;96603;-36
2022/03/27 01:00:43;;;;;;;1.70;1.00;;;;;;;10.45;73.04;103351.97;5096294;27;99163;-37
2022/03/27 01:03:12;;;;;;;1.65;1.00;;;;;;;10.46;70.95;103357.34;5077170;27;101045;-36
2022/03/27 01:05:44;;;;;;;1.92;0.88;;;;;;;10.51;71.16;103355.47;5077271;27;100676;-36
2022/03/27 01:08:12;;;;;;;2.28;1.08;;;;;;;10.48;71.61;103354.63;5095342;27;96793;-36
2022/03/27 01:10:38;;;;;;;1.88;1.10;;;;;;;10.41;71.46;103341.19;5060324;27;96864;-36
2022/03/27 01:13:16;;;;;;;2.55;1.30;;;;;;;10.48;71.86;103360.03;5076965;27;101448;-36
2022/03/27 01:15:46;;;;;;;2.00;1.30;;;;;;;10.46;71.32;103351.94;5077055;27;100688;-37
2022/03/27 01:18:12;;;;;;;2.30;1.67;;;;;;;10.40;72.18;103342.13;5077293;27;96586;-36
2022/03/27 01:20:40;;;;;;;2.40;1.40;;;;;;;10.47;70.54;103348.31;5095768;27;96849;-36
2022/03/27 01:23:13;;;;;;;2.47;1.48;;;;;;;10.43;71.40;103346.59;5076920;27;100964;-36
2022/03/27 01:25:41;;;;;;;1.55;1.13;;;;;;;10.46;71.34;103345.63;5060057;27;100905;-36
2022/03/27 01:28:08;;;;;;;1.95;1.48;;;;;;;10.32;71.82;103333.28;5077102;27;96528;-36
2022/03/27 01:30:34;;;;;;;2.03;1.33;;;;;;;10.36;72.61;103340.38;5077329;27;96884;-37
2022/03/27 01:32:59;;;;;;;2.78;1.40;;;;;;;10.25;71.20;103330.66;5095058;27;98020;-37
2022/03/27 01:35:25;;;;;;;3.20;1.80;;;;;;;10.25;72.46;103331.59;5095643;27;97826;-36
2022/03/27 01:37:50;;;;;;;2.45;1.50;;;;;;;10.23;73.36;103336.13;5077030;27;96548;-36
2022/03/27 01:40:17;;;;;;;3.72;1.67;;;;;;;10.16;72.61;103324.53;5095850;27;96818;-36
2022/03/27 01:42:43;;;;;;;4.18;1.73;;;;;;;10.13;73.47;103330.00;5076686;27;100908;-36
2022/03/27 01:45:09;;;;;;;2.80;1.45;;;;;;;10.14;72.50;103325.47;5076510;27;100587;-36
2022/03/27 01:47:36;;;;;;;4.07;1.67;;;;;;;10.07;74.06;103326.53;5076893;27;96663;-36
2022/03/27 01:50:02;;;;;;;3.45;1.80;;;;;;;10.09;73.69;103324.69;5077215;27;96887;-36
2022/03/27 01:52:28;;;;;;;2.70;1.67;;;;;;;10.14;73.52;103328.19;5076515;27;102324;-36
2022/03/27 01:54:53;;;;;;;3.83;2.08;;;;;;;10.04;73.25;103321.19;5095336;27;97806;-36
2022/03/27 01:57:18;;;;;;;4.50;2.42;;;;;;;10.04;73.05;103327.47;5095010;27;96478;-36
2022/03/27 01:59:44;;;;;;;5.65;2.25;;;;;;;10.06;72.09;103333.75;5094475;27;116417;-36
2022/03/27 02:02:09;;;;;;;4.18;2.03;;;;;;;9.96;72.70;103324.94;5095084;27;97349;-36
2022/03/27 02:04:35;;;;;;;5.43;2.00;;;;;;;9.89;72.24;103327.75;5095072;27;97304;-37
2022/03/27 02:07:01;;;;;;;5.30;2.50;;;;;;;9.90;72.10;103327.72;5095143;27;96563;-36
2022/03/27 02:09:26;;;;;;;4.25;2.15;;;;;;;9.90;72.56;103334.97;5076838;27;96930;-36
2022/03/27 02:11:51;;;;;;;4.65;2.50;;;;;;;9.82;72.98;103334.19;5098440;27;97918;-36
2022/03/27 02:14:17;;;;;;;3.05;1.83;;;;;;;9.75;74.42;103333.44;5080313;27;99035;-36
2022/03/27 02:16:42;;;;;;;4.70;2.30;;;;;;;9.83;74.82;103338.72;5098699;27;96497;-36
2022/03/27 02:19:09;;;;;;;2.22;1.58;;;;;;;9.82;73.54;103327.00;5098698;27;96832;-37
2022/03/27 02:21:36;;;;;;;4.22;1.95;;;;;;;9.87;74.58;103335.91;5097829;27;97622;-36
2022/03/27 02:24:04;;;;;;;3.65;2.05;;;;;;;9.83;73.10;103330.59;5079799;27;100694;-36
2022/03/27 02:26:31;;;;;;;3.22;2.10;;;;;;;9.81;74.92;103332.44;5079974;27;96781;-36
2022/03/27 02:28:56;;;;;;;4.15;2.00;;;;;;;9.82;73.51;103339.63;5079961;27;96863;-36
2022/03/27 02:31:21;;;;;;;5.25;2.67;;;;;;;9.82;73.60;103328.78;5097280;27;123645;-36
2022/03/27 02:33:47;;;;;;;3.75;2.13;;;;;;;9.82;73.43;103323.38;5097000;27;128019;-36
2022/03/27 02:36:13;;;;;;;5.30;2.25;;;;;;;9.85;73.55;103331.47;5097789;27;105309;-36
2022/03/27 02:38:38;;;;;;;3.70;2.13;;;;;;;9.83;72.90;103323.34;5080061;27;96789;-36
2022/03/27 02:41:04;;;;;;;3.75;2.25;;;;;;;9.74;72.71;103319.00;5098051;27;97453;-36
2022/03/27 02:43:30;;;;;;;4.82;2.28;;;;;;;9.82;73.11;103328.78;5097847;27;99147;-36
2022/03/27 02:45:56;;;;;;;4.25;2.60;;;;;;;9.73;72.35;103319.03;5079107;27;96756;-37
2022/03/27 02:48:22;;;;;;;3.92;2.28;;;;;;;9.72;74.72;103323.53;5098453;27;96747;-36
2022/03/27 02:50:47;;;;;;;4.25;1.92;;;;;;;9.69;74.00;103329.00;5097965;27;97846;-36
2022/03/27 02:53:13;;;;;;;4.40;2.22;;;;;;;9.68;74.26;103334.47;5097732;27;98716;-36
2022/03/27 02:55:38;;;;;;;4.13;2.35;;;;;;;9.61;74.35;103324.69;5097423;27;116992;-36
2022/03/27 02:58:03;;;;;;;3.72;1.80;;;;;;;9.57;74.50;103329.22;5097970;27;96578;-36
2022/03/27 03:00:29;;;;;;;4.43;2.28;;;;;;;9.47;74.22;103325.78;5079391;27;98938;-36
2022/03/27 03:02:54;;;;;;;5.93;1.70;;;;;;;9.49;74.55;103325.78;5097994;27;97341;-36
2022/03/27 03:05:20;;;;;;;4.40;2.42;;;;;;;9.42;74.54;103316.88;5097613;27;96568;-36
2022/03/27 03:07:46;;;;;;;3.25;1.92;;;;;;;9.44;73.84;103324.94;5079007;27;97011;-36
2022/03/27 03:10:14;;;;;;;2.92;1.90;;;;;;;9.41;74.80;103316.88;5097207;27;97403;-36
2022/03/27 03:12:40;;;;;;;6.13;2.33;;;;;;;9.44;74.07;103317.75;5097442;27;98713;-36
2022/03/27 03:15:06;;;;;;;4.82;2.50;;;;;;;9.50;73.02;103314.03;5079134;27;96526;-36
2022/03/27 03:17:32;;;;;;;4.25;2.20;;;;;;;9.53;74.15;103319.38;5079223;27;96822;-36
2022/03/27 03:19:58;;;;;;;8.05;2.72;;;;;;;9.41;73.53;103312.34;5097886;27;97421;-36
2022/03/27 03:22:24;;;;;;;5.63;2.55;;;;;;;9.34;74.95;103303.47;5077264;27;100925;-36
2022/03/27 03:24:50;;;;;;;5.30;2.60;;;;;;;9.39;73.92;103313.31;5097751;27;96607;-36
2022/03/27 03:27:15;;;;;;;7.28;2.80;;;;;;;9.32;73.59;103309.84;5079498;27;96769;-37
2022/03/27 03:29:41;;;;;;;4.35;1.73;;;;;;;9.31;75.92;103314.34;5078725;27;100951;-36
2022/03/27 03:32:06;;;;;;;4.10;2.08;;;;;;;9.27;74.64;103306.28;5097357;27;97525;-36
2022/03/27 03:34:32;;;;;;;4.90;2.60;;;;;;;9.27;74.20;103300.88;5097136;27;96607;-36
2022/03/27 03:36:57;;;;;;;5.13;2.78;;;;;;;9.30;74.42;103320.66;5097679;27;96801;-36
2022/03/27 03:39:23;;;;;;;4.63;2.70;;;;;;;9.23;74.11;103294.66;5097012;27;98017;-36
2022/03/27 03:41:49;;;;;;;4.13;2.13;;;;;;;9.29;75.37;103301.75;5096760;27;99491;-36
2022/03/27 03:44:14;;;;;;;5.95;3.25;;;;;;;9.25;74.46;103298.22;5078740;27;96574;-36
2022/03/27 03:46:39;;;;;;;6.25;2.88;;;;;;;9.22;74.93;103294.66;5096875;27;96833;-36
2022/03/27 03:49:06;;;;;;;4.50;2.70;;;;;;;9.32;74.14;103299.03;5096144;27;125809;-36
2022/03/27 03:51:34;;;;;;;5.93;3.15;;;;;;;9.28;75.60;103308.09;5097184;27;99338;-37
2022/03/27 03:53:59;;;;;;;4.30;2.17;;;;;;;9.30;73.98;103301.75;5078664;27;96784;-36
2022/03/27 03:56:24;;;;;;;6.32;2.95;;;;;;;9.27;73.61;103296.38;5096992;27;96813;-37
2022/03/27 03:58:50;;;;;;;4.78;2.53;;;;;;;9.31;73.76;103298.09;5077515;27;105246;-36
2022/03/27 04:01:15;;;;;;;3.95;2.03;;;;;;;9.33;74.35;103317.03;5096841;27;96817;-36
2022/03/27 04:03:40;;;;;;;4.97;2.58;;;;;;;9.29;73.63;103316.16;5096172;27;107891;-36
2022/03/27 04:06:07;;;;;;;5.38;2.83;;;;;;;9.26;74.46;103309.94;5097077;27;96819;-36
2022/03/27 04:08:33;;;;;;;6.50;2.47;;;;;;;9.29;74.08;103308.06;5095899;27;99341;-36
2022/03/27 04:10:58;;;;;;;8.93;3.17;;;;;;;9.24;73.45;103303.66;5077971;27;97950;-36
2022/03/27 04:13:23;;;;;;;4.97;2.80;;;;;;;9.22;73.77;103306.38;5096781;27;96508;-36
2022/03/27 04:15:48;;;;;;;5.75;2.72;;;;;;;9.22;74.70;103309.06;5097230;27;96716;-36
2022/03/27 04:18:14;;;;;;;5.05;2.17;;;;;;;9.19;73.86;103306.41;5096954;27;97405;-36
2022/03/27 04:20:41;;;;;;;6.63;3.20;;;;;;;9.24;74.51;103307.25;5096561;27;97890;-36
2022/03/27 04:23:06;;;;;;;5.00;2.80;;;;;;;9.17;73.98;103307.38;5077680;27;96790;-37
2022/03/27 04:25:31;;;;;;;6.78;3.85;;;;;;;9.07;74.06;103306.63;5096857;27;96749;-36
2022/03/27 04:27:57;;;;;;;8.48;3.70;;;;;;;9.08;74.30;103303.00;5095921;27;112497;-36
2022/03/27 04:30:22;;;;;;;3.90;2.05;;;;;;;9.03;74.58;103315.69;5095558;27;121239;-36
2022/03/27 04:32:50;;;;;;;5.82;2.95;;;;;;;8.99;73.53;103305.88;5095649;27;110160;-36
2022/03/27 04:35:16;;;;;;;5.47;2.55;;;;;;;8.93;73.39;103309.53;5077927;27;96782;-36
2022/03/27 04:37:43;;;;;;;6.30;2.67;;;;;;;8.96;74.53;103316.69;5096159;27;97964;-36
2022/03/27 04:40:13;;;;;;;6.47;3.40;;;;;;;8.96;75.26;103311.28;5077901;27;100749;-36
2022/03/27 04:42:39;;;;;;;5.93;2.78;;;;;;;8.98;73.67;103318.47;5096329;27;96587;-36
2022/03/27 04:45:05;;;;;;;5.15;2.78;;;;;;;8.90;74.50;103321.28;5077954;27;96871;-36
2022/03/27 04:47:31;;;;;;;6.15;2.60;;;;;;;8.85;75.54;103324.97;5095364;27;97437;-36
2022/03/27 04:49:56;;;;;;;6.35;3.45;;;;;;;8.88;74.48;103316.81;5095840;27;99281;-36
2022/03/27 04:52:21;;;;;;;5.07;3.20;;;;;;;8.82;74.25;103316.91;5095387;27;116860;-36
2022/03/27 04:54:46;;;;;;;5.80;2.75;;;;;;;8.78;74.25;103312.47;5096492;27;96757;-36
2022/03/27 04:57:12;;;;;;;6.68;3.53;;;;;;;8.83;73.27;103321.41;5095708;27;99602;-36
2022/03/27 04:59:37;;;;;;;6.07;2.72;;;;;;;8.76;75.40;103308.91;5095925;27;99223;-36
2022/03/27 05:02:03;;;;;;;6.10;3.42;;;;;;;8.75;73.85;103313.41;5095814;27;102738;-36
2022/03/27 05:04:28;;;;;;;3.17;1.88;;;;;;;8.77;74.86;103324.19;5096200;27;96871;-36
2022/03/27 05:06:54;;;;;;;6.70;3.25;;;;;;;8.73;75.19;103311.66;5095500;27;97873;-36
2022/03/27 05:09:19;;;;;;;4.40;2.47;;;;;;;8.74;74.58;103311.59;5095300;27;105260;-36
2022/03/27 05:11:46;;;;;;;6.80;2.33;;;;;;;8.80;74.45;103321.47;5095730;27;96528;-36
2022/03/27 05:14:12;;;;;;;6.75;3.17;;;;;;;8.82;74.31;103327.69;5077460;27;96795;-36
2022/03/27 05:16:38;;;;;;;4.97;2.53;;;;;;;8.77;75.33;103317.00;5077346;27;101378;-37
2022/03/27 05:19:04;;;;;;;3.72;2.22;;;;;;;8.81;74.28;103321.41;5077113;27;100818;-37
2022/03/27 05:21:30;;;;;;;4.75;2.15;;;;;;;8.82;74.44;103330.41;5095978;27;96729;-36
2022/03/27 05:23:55;;;;;;;5.13;2.58;;;;;;;8.79;74.09;103328.66;5077369;27;96702;-36
2022/03/27 05:26:21;;;;;;;6.82;3.17;;;;;;;8.71;73.58;103317.06;5095635;27;97893;-36
2022/03/27 05:28:46;;;;;;;7.28;2.60;;;;;;;8.76;74.41;103330.50;5095804;27;99152;-36
2022/03/27 05:31:12;;;;;;;4.53;2.20;;;;;;;8.79;74.19;103327.75;5095431;27;106196;-36
2022/03/27 05:33:38;;;;;;;4.68;2.55;;;;;;;8.76;73.02;103322.41;5095749;27;96796;-36
2022/03/27 05:36:05;;;;;;;3.95;2.47;;;;;;;8.75;73.93;103321.53;5076180;27;100770;-37
2022/03/27 05:38:30;;;;;;;4.43;2.35;;;;;;;8.69;72.82;103313.47;5076978;27;100908;-36
2022/03/27 05:40:55;;;;;;;5.57;2.70;;;;;;;8.73;74.38;103322.47;5094736;27;114495;-37
2022/03/27 05:43:21;;;;;;;4.50;2.25;;;;;;;8.82;73.89;103327.69;5094933;27;115292;-36
2022/03/27 05:45:47;;;;;;;4.80;2.38;;;;;;;8.67;73.96;103304.50;5097157;27;97482;-36
2022/03/27 05:48:13;;;;;;;5.10;2.80;;;;;;;8.69;74.33;103317.06;5099010;27;97853;-36
2022/03/27 05:50:39;;;;;;;5.63;2.00;;;;;;;8.69;74.08;103321.59;5099041;27;96769;-36
2022/03/27 05:53:04;;;;;;;6.10;2.45;;;;;;;8.61;73.93;103315.41;5081095;27;96934;-36
2022/03/27 05:55:30;;;;;;;5.35;2.75;;;;;;;8.61;74.51;103308.19;5099027;27;97403;-36
2022/03/27 05:57:55;;;;;;;4.80;2.40;;;;;;;8.64;73.44;103327.06;5098765;27;97797;-36
2022/03/27 06:00:20;;;;;;;3.65;2.42;;;;;;;8.67;74.21;103331.53;5098501;27;96459;-36
2022/03/27 06:02:46;;;;;;;3.35;1.98;;;;;;;8.57;74.41;103335.28;5098672;27;96787;-36
2022/03/27 06:05:12;;;;;;;4.45;2.72;;;;;;;8.53;74.06;103337.09;5079733;27;100523;-36
2022/03/27 06:07:45;;;;;;;5.57;2.63;;;;;;;8.48;74.11;103341.66;5079452;27;100970;-36
2022/03/27 06:10:11;;;;;;;5.15;2.20;;;;;;;8.39;73.62;103339.97;5080183;27;96665;-36
2022/03/27 06:12:36;;;;;;;3.33;1.75;;;;;;;8.31;74.11;103331.03;5099142;27;96804;-36
2022/03/27 06:15:02;;;;;;;5.07;2.75;;;;;;;8.29;73.68;103333.78;5098321;27;98651;-36
2022/03/27 06:17:27;;;;;;;2.38;1.23;;;;;;;8.24;75.74;103340.13;5080050;27;101672;-36
2022/03/27 06:19:54;;;;;;;2.58;1.48;;;;;;;8.24;75.66;103349.13;5098425;27;96572;-36
2022/03/27 06:22:19;;;;;;;2.42;1.40;;;;;;;8.19;74.96;103364.47;5097406;27;119064;-36
2022/03/27 06:24:44;;;;;;;3.95;2.40;;;;;;;8.18;74.71;103351.91;5097946;27;98240;-36
2022/03/27 06:27:10;;;;;;;6.88;2.72;;;;;;;8.24;74.40;103359.91;5097118;27;125095;-36
2022/03/27 06:29:35;;;;;;;4.15;2.33;;;;;;;8.19;73.66;103347.41;5097827;27;111195;-36
2022/03/27 06:32:00;;;;;;;3.33;1.80;;;;;;;8.15;75.32;103365.44;5097891;27;112165;-36
2022/03/27 06:34:26;;;;;;;4.05;2.50;;;;;;;8.22;74.55;103360.84;5097728;27;99408;-37
2022/03/27 06:36:52;;;;;;;6.53;2.70;;;;;;;8.23;74.72;103357.25;5098153;27;97764;-36
2022/03/27 06:39:17;;;;;;;4.72;2.55;;;;;;;8.23;74.18;103363.53;5098499;27;96481;-36
2022/03/27 06:41:42;;;;;;;4.60;2.28;;;;;;;8.23;74.16;103363.53;5098794;27;96741;-37
2022/03/27 06:44:08;;;;;;;2.47;1.65;;;;;;;8.24;74.65;103354.53;5097664;27;112602;-36
2022/03/27 06:46:33;;;;;;;4.13;2.28;;;;;;;8.28;73.84;103352.69;5097760;27;97837;-36
2022/03/27 06:48:58;;;;;;;4.35;2.15;;;;;;;8.22;73.34;103345.56;5097570;27;96765;-36
2022/03/27 06:51:24;;;;;;;4.15;1.85;;;;;;;8.32;74.48;103353.53;5097376;27;108535;-36
2022/03/27 06:53:49;;;;;;;4.70;1.80;;;;;;;8.27;74.35;103341.00;5097677;27;99397;-36
2022/03/27 06:56:14;;;;;;;3.45;2.15;;;;;;;8.33;74.00;103345.44;5096697;27;127205;-36
2022/03/27 06:58:40;;;;;;;4.22;2.03;;;;;;;8.41;74.46;103356.16;5098353;27;96461;-37
2022/03/27 07:03:49;;;;;;;3.80;1.92;;;;;;;8.42;75.20;103357.97;5097872;27;96397;-36
2022/03/27 07:06:15;;;;;;;8.57;2.67;;;;;;;8.44;73.55;103356.16;5098149;27;97731;-37
2022/03/27 07:08:41;;;;;;;4.18;2.30;;;;;;;8.52;74.78;103365.03;5084618;27;99761;-37
2022/03/27 07:11:06;;;;;;;3.08;1.58;;;;;;;8.49;74.44;103360.56;5077145;27;96789;-36
2022/03/27 07:13:32;;;;;;;5.15;2.53;;;;;;;8.56;74.20;103371.31;5076551;27;97953;-36
2022/03/27 07:15:57;;;;;;;4.25;1.85;;;;;;;8.53;74.37;103363.22;5076698;27;99060;-36
2022/03/27 07:18:23;;;;;;;4.30;2.35;;;;;;;8.44;74.17;103353.44;5076952;27;96638;-36
2022/03/27 07:20:48;;;;;;;3.90;2.17;;;;;;;8.52;73.67;103367.75;5077238;27;96662;-36
2022/03/27 07:23:17;;;;;;;3.58;2.08;;;;;;;8.47;73.90;103362.41;5076542;27;99356;-36
2022/03/27 07:25:46;;;;;;;3.88;2.10;;;;;;;8.47;72.83;103357.00;5058407;27;100889;-36
2022/03/27 07:28:13;;;;;;;4.38;2.00;;;;;;;8.46;73.36;103343.50;5075612;27;96665;-36
2022/03/27 07:30:41;;;;;;;4.90;2.33;;;;;;;8.45;72.66;103357.94;5077080;27;96738;-36
2022/03/27 07:33:06;;;;;;;6.13;1.92;;;;;;;8.46;73.11;103363.31;5075204;27;100841;-37
2022/03/27 07:35:32;;;;;;;3.60;1.80;;;;;;;8.44;73.08;103353.44;5076432;27;99348;-36
2022/03/27 07:37:58;;;;;;;3.15;1.83;;;;;;;8.37;73.71;103347.19;5076414;27;96473;-36
2022/03/27 07:40:23;;;;;;;3.33;1.80;;;;;;;8.38;73.26;103354.38;5075304;27;97008;-36
2022/03/27 07:42:50;;;;;;;4.10;2.33;;;;;;;8.37;73.16;103349.88;5076633;27;97503;-36
2022/03/27 07:45:21;;;;;;;3.10;1.70;;;;;;;8.46;72.93;103354.31;5074563;27;100969;-36
2022/03/27 07:47:47;;;;;;;4.05;1.98;;;;;;;8.32;72.93;103345.44;5058285;27;97876;-36
2022/03/27 07:50:12;;;;;;;4.00;2.15;;;;;;;8.39;72.88;103349.84;5075225;27;96780;-36
2022/03/27 07:52:39;;;;;;;6.97;1.80;;;;;;;8.52;72.90;103356.06;5075426;27;126615;-36
2022/03/27 07:55:06;;;;;;;5.05;2.72;;;;;;;8.61;72.03;103345.13;5076628;27;98789;-36
2022/03/27 07:57:33;;;;;;;3.03;1.63;;;;;;;8.95;71.57;103363.59;5076621;27;96734;-36
2022/03/27 07:59:58;;;;;;;2.88;1.73;;;;;;;9.13;71.64;103357.91;5074915;27;96824;-36
2022/03/27 08:02:24;;;;;;;3.25;1.52;;;;;;;9.28;71.18;103370.31;5075384;27;109348;-36
2022/03/27 08:04:49;;;;;;;4.47;1.55;;;;;;;9.45;70.72;103365.50;5075952;27;97983;-36
2022/03/27 08:07:15;;;;;;;3.10;1.58;;;;;;;9.75;70.30;103361.41;5076297;27;96626;-36
2022/03/27 08:09:41;;;;;;;4.80;2.00;;;;;;;10.07;69.14;103375.25;5061003;27;96887;-36
2022/03/27 08:12:08;;;;;;;4.15;1.73;;;;;;;10.33;67.97;103358.53;5060931;27;100909;-36
2022/03/27 08:14:38;;;;;;;3.65;2.15;;;;;;;10.59;67.49;103372.44;5077822;27;100872;-37
2022/03/27 08:17:04;;;;;;;3.60;1.38;;;;;;;10.85;66.92;103368.28;5078162;27;96672;-36
2022/03/27 08:19:30;;;;;;;3.40;1.65;;;;;;;11.00;66.58;103353.47;5078654;27;96929;-36
2022/03/27 08:21:55;;;;;;;4.20;1.95;;;;;;;11.19;65.51;103356.66;5096390;27;98044;-36
2022/03/27 08:24:21;;;;;;;4.13;2.33;;;;;;;11.24;65.08;103354.72;5096245;27;99188;-36
2022/03/27 08:26:56;;;;;;;3.75;1.40;;;;;;;11.36;65.04;103358.97;5096078;27;96478;-36
2022/03/27 08:29:33;;;;;;;5.00;2.47;;;;;;;11.42;64.94;103357.00;5077974;27;96838;-36
2022/03/27 08:32:00;;;;;;;4.65;2.45;;;;;;;11.46;64.97;103357.78;5096479;27;97997;-36
2022/03/27 08:34:28;;;;;;;3.35;1.58;;;;;;;11.38;64.39;103352.56;5096330;27;97335;-36
2022/03/27 08:36:54;;;;;;;4.28;2.22;;;;;;;11.42;64.72;103359.72;5077815;27;96602;-37
2022/03/27 08:39:20;;;;;;;3.78;2.13;;;;;;;11.32;64.50;103344.59;5077853;27;96606;-36
2022/03/27 08:41:47;;;;;;;5.13;1.65;;;;;;;11.25;64.56;103348.38;5096030;27;99144;-36
2022/03/27 08:44:18;;;;;;;3.67;1.83;;;;;;;11.17;64.58;103355.78;5077876;27;100842;-36
2022/03/27 08:46:44;;;;;;;3.63;1.50;;;;;;;11.08;64.82;103346.03;5077653;27;96785;-36
2022/03/27 08:49:15;;;;;;;3.85;1.95;;;;;;;11.13;63.95;103359.50;5096370;27;96955;-36
2022/03/27 08:52:01;;;;;;;6.05;2.17;;;;;;;11.05;64.49;103359.69;5095352;27;109445;-36
2022/03/27 08:54:35;;;;;;;4.32;1.98;;;;;;;11.02;64.13;103360.66;5080687;27;97812;-36
2022/03/27 08:57:08;;;;;;;3.78;1.90;;;;;;;10.93;64.77;103362.69;5096116;27;96613;-36
2022/03/27 08:59:35;;;;;;;5.40;1.52;;;;;;;10.80;64.23;103356.66;5077661;27;96714;-36
2022/03/27 09:02:00;;;;;;;3.35;1.65;;;;;;;10.80;64.90;103357.53;5077027;27;100919;-36
2022/03/27 09:04:26;;;;;;;5.97;2.53;;;;;;;10.68;64.39;103346.97;5094929;27;103697;-36
2022/03/27 09:06:51;;;;;;;4.50;2.10;;;;;;;10.67;64.32;103357.84;5096208;27;96401;-36
2022/03/27 09:09:17;;;;;;;3.17;1.73;;;;;;;10.65;64.41;103351.56;5095309;27;116479;-36
2022/03/27 09:11:43;;;;;;;6.15;1.85;;;;;;;10.63;64.17;103355.19;5094802;27;126524;-36
2022/03/27 09:14:10;;;;;;;5.55;2.30;;;;;;;10.66;62.92;103346.09;5077075;27;100975;-36
2022/03/27 09:17:05;;;;;;;3.97;1.80;;;;;;;10.80;62.87;103356.66;5076773;27;96565;-36
2022/03/27 09:19:48;;;;;;;4.35;1.65;;;;;;;10.78;62.12;103344.94;5078757;27;96884;-37
2022/03/27 09:22:18;;;;;;;1.33;0.90;;;;;;;10.74;61.66;103338.69;5080524;27;101164;-36
2022/03/27 09:24:47;;;;;;;3.25;1.65;;;;;;;10.82;62.08;103336.72;5080687;27;100926;-36
2022/03/27 09:27:13;;;;;;;4.75;1.52;;;;;;;11.00;62.51;103343.53;5080867;27;97850;-36
2022/03/27 09:30:06;;;;;;;4.28;2.03;;;;;;;11.25;61.83;103349.28;5080999;27;96917;-36
2022/03/27 09:32:35;;;;;;;3.25;1.67;;;;;;;11.43;61.23;103345.19;5080493;27;101119;-37
2022/03/27 09:35:17;;;;;;;4.80;2.45;;;;;;;11.63;60.39;103332.94;5080875;27;100893;-36
2022/03/27 09:37:47;;;;;;;1.45;0.95;;;;;;;12.02;60.60;103341.00;5080735;27;97243;-36
2022/03/27 09:40:17;;;;;;;4.90;2.08;;;;;;;12.33;59.54;103339.19;5080756;27;96914;-37
2022/03/27 09:42:43;;;;;;;4.57;2.05;;;;;;;12.59;59.02;103334.81;5079799;27;101289;-37
2022/03/27 09:45:16;;;;;;;3.47;1.92;;;;;;;12.98;56.10;103339.06;5098894;27;98008;-36
2022/03/27 09:47:47;;;;;;;3.42;2.00;;;;;;;13.28;57.13;103335.41;5080706;27;96617;-36
2022/03/27 09:50:48;;;;;;;3.75;1.60;;;;;;;13.55;55.04;103343.56;5099442;27;96504;-36
2022/03/27 09:53:23;;;;;;;3.55;1.65;;;;;;;13.90;54.91;103338.75;5015344;28;97417;-36
2022/03/27 09:55:58;;;;;;;2.50;1.40;;;;;;;14.27;53.29;103337.38;5068314;27;100775;-36
2022/03/27 09:58:37;;;;;;;2.30;1.40;;;;;;;14.30;50.43;103335.47;5098952;27;96618;-37
2022/03/27 10:01:28;;;;;;;5.75;2.05;;;;;;;14.46;50.36;103341.19;5099451;27;96787;-36
2022/03/27 10:03:58;;;;;;;3.92;2.22;;;;;;;14.90;52.22;103329.53;5093459;27;123264;-36
2022/03/27 10:06:32;;;;;;;3.97;1.98;;;;;;;15.12;51.80;103321.38;5080038;27;100724;-36
2022/03/27 10:09:02;;;;;;;4.93;2.00;;;;;;;15.43;51.95;103318.25;5079141;27;96780;-36
2022/03/27 10:11:29;;;;;;;4.80;2.38;;;;;;;15.56;51.80;103314.03;5099154;27;96771;-36
2022/03/27 10:13:55;;;;;;;3.58;2.03;;;;;;;15.78;50.24;103316.78;5079976;27;100796;-36
2022/03/27 10:16:28;;;;;;;5.95;2.35;;;;;;;15.87;49.87;103301.78;5079792;27;100724;-36
2022/03/27 10:18:56;;;;;;;4.43;2.10;;;;;;;16.05;51.42;103302.81;5098665;27;96610;-36
2022/03/27 10:21:24;;;;;;;5.20;2.45;;;;;;;16.34;49.90;103306.94;5080116;27;96890;-36
2022/03/27 10:23:55;;;;;;;4.28;2.08;;;;;;;16.48;50.22;103309.91;5079443;27;101158;-36
2022/03/27 10:26:20;;;;;;;4.60;2.30;;;;;;;16.49;49.90;103288.91;5079978;27;100500;-36
2022/03/27 10:28:49;;;;;;;3.50;2.03;;;;;;;16.59;48.76;103286.63;5097729;27;117221;-36
2022/03/27 10:31:18;;;;;;;3.22;1.77;;;;;;;16.77;48.71;103307.63;5079332;27;96597;-37
2022/03/27 10:33:43;;;;;;;5.22;2.42;;;;;;;16.88;47.37;103301.69;5079120;27;101281;-36
2022/03/27 10:36:29;;;;;;;4.90;1.90;;;;;;;17.05;46.40;103300.84;5098171;27;99401;-36
2022/03/27 10:39:34;;;;;;;4.60;1.48;;;;;;;17.20;44.01;103302.81;5098747;27;96589;-36
2022/03/27 10:42:13;;;;;;;4.38;1.85;;;;;;;17.25;45.62;103300.72;5098318;27;96770;-36
2022/03/27 10:44:55;;;;;;;3.83;1.85;;;;;;;17.36;43.54;103302.94;5079433;27;100962;-36
2022/03/27 10:47:22;;;;;;;5.15;2.00;;;;;;;17.33;46.05;103290.28;5079083;27;99779;-36
2022/03/27 10:50:06;;;;;;;4.38;1.80;;;;;;;17.62;44.06;103301.59;5079591;27;96693;-36
2022/03/27 10:53:08;;;;;;;4.53;2.28;;;;;;;17.66;43.25;103305.91;5079886;27;96839;-36
2022/03/27 10:55:39;;;;;;;3.03;1.60;;;;;;;17.80;43.49;103294.25;5079485;27;100733;-36
2022/03/27 10:58:40;;;;;;;3.90;2.00;;;;;;;18.00;41.30;103294.09;5062878;27;100830;-36
2022/03/27 11:01:20;;;;;;;2.80;1.60;;;;;;;18.14;41.25;103286.97;5097061;27;96514;-36
2022/03/27 11:03:52;;;;;;;3.45;1.63;;;;;;;18.19;42.09;103283.03;5097952;27;96772;-36
2022/03/27 11:06:30;;;;;;;5.63;2.37;;;;;;;18.31;41.29;103275.09;5097678;27;99407;-36
2022/03/27 11:08:57;;;;;;;3.80;1.58;;;;;;;18.19;39.22;103276.66;5078324;27;100809;-36
2022/03/27 11:11:50;;;;;;;3.72;1.42;;;;;;;18.24;40.55;103275.41;5097932;27;96515;-36
2022/03/27 11:14:23;;;;;;;7.97;2.50;;;;;;;18.51;42.22;103277.59;5079259;27;96696;-36
2022/03/27 11:17:04;;;;;;;4.10;2.17;;;;;;;18.58;41.10;103276.25;5078781;27;100871;-36
2022/03/27 11:19:47;;;;;;;3.92;1.90;;;;;;;18.64;40.89;103264.94;5079238;27;100737;-36
2022/03/27 11:22:40;;;;;;;5.35;1.75;;;;;;;18.72;40.97;103274.59;5079087;27;96907;-36
2022/03/27 11:25:28;;;;;;;3.88;1.48;;;;;;;18.72;40.07;103269.13;5097871;27;96768;-36
2022/03/27 11:28:02;;;;;;;4.28;1.98;;;;;;;18.68;38.39;103269.25;5096684;27;99943;-37
2022/03/27 11:30:27;;;;;;;4.20;1.83;;;;;;;18.67;39.71;103251.03;5097382;27;97820;-36
2022/03/27 11:33:22;;;;;;;4.47;2.38;;;;;;;18.79;39.73;103254.09;5097627;27;96729;-36
2022/03/27 11:36:07;;;;;;;5.03;1.70;;;;;;;19.00;37.62;103260.19;5097657;27;96808;-36